Time;durP1;ratioP1;P1;durP2;ratioP2;P2;SDS_P1;SDS_P2;PMS_P1;PMS_P2;Temp;Humidity;BMP_temperature;BMP_pressure;BME280_temperature;BME280_humidity;BME280_pressure;Samples;Min_cycle;Max_cycle;Signal;HPM_P1;HPM_P2
2023/12/15 00:02:20;;;;;;;6.07;5.20;;;7.40;99.90;;;;;;5060874;28;20102;-35
2023/12/15 00:04:46;;;;;;;8.32;5.80;;;7.40;99.90;;;;;;5060692;28;20044;-36
2023/12/15 00:07:11;;;;;;;7.40;6.07;;;7.40;99.90;;;;;;5060656;28;20027;-34
2023/12/15 00:09:37;;;;;;;7.45;5.50;;;7.40;99.90;;;;;;5060411;28;20047;-36
2023/12/15 00:12:03;;;;;;;7.35;5.75;;;7.40;99.90;;;;;;5060499;28;20082;-36
2023/12/15 00:14:28;;;;;;;6.32;5.15;;;7.40;99.90;;;;;;5060209;28;20039;-35
2023/12/15 00:16:54;;;;;;;7.35;5.70;;;7.40;99.90;;;;;;5058279;28;20028;-36
2023/12/15 00:19:19;;;;;;;5.85;5.00;;;7.40;99.90;;;;;;5060986;28;20689;-36
2023/12/15 00:21:45;;;;;;;7.13;5.50;;;7.40;99.90;;;;;;5060840;28;20024;-36
2023/12/15 00:24:14;;;;;;;5.72;5.03;;;7.40;99.90;;;;;;5059894;28;20036;-36
2023/12/15 00:26:39;;;;;;;6.82;5.10;;;7.50;99.90;;;;;;5060786;28;20033;-36
2023/12/15 00:29:05;;;;;;;5.97;5.07;;;7.50;99.90;;;;;;5061678;28;20416;-36
2023/12/15 00:31:31;;;;;;;6.35;5.60;;;7.50;99.90;;;;;;5060612;28;20082;-38
2023/12/15 00:33:57;;;;;;;6.32;4.97;;;7.50;99.90;;;;;;5060337;28;20029;-36
2023/12/15 00:36:22;;;;;;;8.23;6.10;;;7.50;99.90;;;;;;5060939;28;20021;-36
2023/12/15 00:38:48;;;;;;;7.43;5.47;;;7.50;99.90;;;;;;5060212;28;20612;-37
2023/12/15 00:41:13;;;;;;;7.40;5.13;;;7.50;99.90;;;;;;5061508;28;20024;-37
2023/12/15 00:43:42;;;;;;;8.82;5.88;;;7.50;99.90;;;;;;5061380;28;20016;-36
2023/12/15 00:46:08;;;;;;;9.13;6.00;;;7.50;99.90;;;;;;5060307;28;20059;-36
2023/12/15 00:48:33;;;;;;;7.72;5.57;;;7.50;99.90;;;;;;5060448;28;20107;-35
2023/12/15 00:50:59;;;;;;;9.05;5.47;;;7.50;99.90;;;;;;5059788;28;20132;-35
2023/12/15 00:53:25;;;;;;;7.43;5.82;;;7.50;99.90;;;;;;5059604;28;20384;-36
2023/12/15 00:55:51;;;;;;;8.25;5.65;;;7.50;99.90;;;;;;5060275;28;20035;-36
2023/12/15 00:58:19;;;;;;;8.25;6.55;;;7.50;99.90;;;;;;5060208;28;20036;-36
2023/12/15 01:00:45;;;;;;;8.55;6.95;;;7.50;99.90;;;;;;5059384;28;20040;-37
2023/12/15 01:03:11;;;;;;;8.63;6.90;;;7.60;99.90;;;;;;5060119;28;20020;-37
2023/12/15 01:05:36;;;;;;;9.65;7.30;;;7.60;99.90;;;;;;5060442;28;20369;-36
2023/12/15 01:08:03;;;;;;;14.23;8.35;;;7.60;99.90;;;;;;5059806;28;20549;-37
2023/12/15 01:10:29;;;;;;;11.48;8.52;;;7.60;99.90;;;;;;5060413;28;20101;-37
2023/12/15 01:12:54;;;;;;;10.43;7.97;;;7.60;99.90;;;;;;5059030;28;20020;-36
2023/12/15 01:15:20;;;;;;;11.75;8.52;;;7.60;99.90;;;;;;5060330;28;20017;-36
2023/12/15 01:17:45;;;;;;;12.27;8.73;;;7.60;99.90;;;;;;5059748;28;20111;-36
2023/12/15 01:20:13;;;;;;;12.88;9.07;;;7.60;99.90;;;;;;5059254;28;20036;-36
2023/12/15 01:22:39;;;;;;;14.88;9.90;;;7.70;99.90;;;;;;5060531;28;20020;-37
2023/12/15 01:25:05;;;;;;;12.77;9.40;;;7.60;99.90;;;;;;5059436;28;20463;-36
2023/12/15 01:27:31;;;;;;;13.52;10.50;;;7.60;99.90;;;;;;5059401;28;20108;-37
2023/12/15 01:29:56;;;;;;;15.40;11.93;;;7.70;99.90;;;;;;5059331;28;20027;-36
2023/12/15 01:32:25;;;;;;;14.45;10.77;;;7.60;99.90;;;;;;5059937;28;20024;-36
2023/12/15 01:34:50;;;;;;;17.15;11.88;;;7.60;99.90;;;;;;5059179;28;20020;-37
2023/12/15 01:37:22;;;;;;;18.27;12.93;;;7.60;99.90;;;;;;5059719;28;20035;-37
2023/12/15 01:39:47;;;;;;;19.42;13.40;;;7.60;99.90;;;;;;5060220;28;20107;-36
2023/12/15 01:42:13;;;;;;;18.50;12.88;;;7.60;99.90;;;;;;5060310;28;20031;-36
2023/12/15 01:44:40;;;;;;;17.48;12.63;;;7.60;99.90;;;;;;5062419;28;20066;-36
2023/12/15 01:47:09;;;;;;;16.30;12.52;;;7.60;99.90;;;;;;5063840;28;20115;-36
2023/12/15 01:49:35;;;;;;;20.95;15.90;;;7.60;99.90;;;;;;5062887;28;20577;-36
2023/12/15 01:52:01;;;;;;;18.83;13.75;;;7.60;99.90;;;;;;5062562;28;20052;-37
2023/12/15 01:54:26;;;;;;;20.75;14.05;;;7.60;99.90;;;;;;5063952;28;20028;-37
2023/12/15 01:56:52;;;;;;;18.52;12.45;;;7.60;99.90;;;;;;5063160;28;20028;-36
2023/12/15 01:59:18;;;;;;;16.05;11.48;;;7.70;99.90;;;;;;5064183;28;20403;-36
2023/12/15 02:01:43;;;;;;;18.42;12.95;;;7.70;99.90;;;;;;5063412;28;20792;-36
2023/12/15 02:04:12;;;;;;;14.63;10.88;;;7.70;99.90;;;;;;5062580;28;20024;-36
2023/12/15 02:06:38;;;;;;;13.07;10.63;;;7.70;99.90;;;;;;5062839;28;20060;-37
2023/12/15 02:09:03;;;;;;;16.05;11.73;;;7.70;99.90;;;;;;5063468;28;20938;-36
2023/12/15 02:11:29;;;;;;;15.85;11.70;;;7.70;99.90;;;;;;5062653;28;20111;-36
2023/12/15 02:13:54;;;;;;;15.77;12.45;;;7.80;99.90;;;;;;5062378;28;20029;-36
2023/12/15 02:16:20;;;;;;;21.17;12.38;;;7.80;99.90;;;;;;5062912;28;20101;-38
2023/12/15 02:18:47;;;;;;;17.65;13.20;;;7.80;99.90;;;;;;5063688;28;20047;-36
2023/12/15 02:21:12;;;;;;;18.08;13.32;;;7.80;99.90;;;;;;5063475;28;20074;-36
2023/12/15 02:23:38;;;;;;;17.55;13.07;;;7.80;99.90;;;;;;5062663;28;20040;-37
2023/12/15 02:26:04;;;;;;;18.58;13.27;;;7.80;99.90;;;;;;5062705;28;20020;-36
2023/12/15 02:28:32;;;;;;;15.13;11.73;;;7.80;99.90;;;;;;5063453;28;20804;-37
2023/12/15 02:30:58;;;;;;;17.55;12.98;;;7.80;99.90;;;;;;5062394;28;20048;-38
2023/12/15 02:33:25;;;;;;;17.95;12.30;;;7.80;99.90;;;;;;5062895;28;20673;-37
2023/12/15 02:35:51;;;;;;;16.73;12.07;;;7.90;99.90;;;;;;5062832;28;20021;-37
2023/12/15 02:38:18;;;;;;;16.92;12.68;;;7.90;99.90;;;;;;5058593;28;20101;-37
2023/12/15 02:40:44;;;;;;;17.10;11.27;;;7.90;99.90;;;;;;5064234;28;20036;-36
2023/12/15 02:43:10;;;;;;;16.48;11.77;;;7.90;99.90;;;;;;5063427;28;20722;-37
2023/12/15 02:45:37;;;;;;;20.02;13.65;;;7.90;99.90;;;;;;5063280;28;20021;-37
2023/12/15 02:48:03;;;;;;;20.17;13.60;;;7.90;99.90;;;;;;5062769;28;20035;-37
2023/12/15 02:50:28;;;;;;;16.15;11.95;;;7.90;99.90;;;;;;5063529;28;20029;-39
2023/12/15 02:52:54;;;;;;;19.40;13.35;;;7.90;99.90;;;;;;5063081;28;20135;-36
2023/12/15 02:55:20;;;;;;;22.83;14.25;;;7.90;99.90;;;;;;5063270;28;20032;-36
2023/12/15 02:57:46;;;;;;;27.75;17.80;;;7.90;99.90;;;;;;5062355;28;20116;-36
2023/12/15 03:00:14;;;;;;;26.45;17.63;;;7.90;99.90;;;;;;5062582;28;20102;-37
2023/12/15 03:02:40;;;;;;;25.33;17.88;;;7.90;99.90;;;;;;5062351;28;20025;-36
2023/12/15 03:05:06;;;;;;;25.58;16.77;;;7.90;99.90;;;;;;5062656;28;20493;-35
2023/12/15 03:07:31;;;;;;;22.73;15.93;;;7.90;99.90;;;;;;5062002;28;20107;-37
2023/12/15 03:09:57;;;;;;;24.67;14.93;;;7.90;99.90;;;;;;5061776;28;20094;-36
2023/12/15 03:12:22;;;;;;;23.25;14.77;;;7.90;99.90;;;;;;5062597;28;20753;-36
2023/12/15 03:14:48;;;;;;;25.95;16.25;;;7.90;99.90;;;;;;5060904;28;20074;-37
2023/12/15 03:17:16;;;;;;;21.05;14.02;;;7.90;99.90;;;;;;5062056;28;20025;-36
2023/12/15 03:19:42;;;;;;;25.58;16.17;;;7.90;99.90;;;;;;5057952;28;20792;-36
2023/12/15 03:22:07;;;;;;;21.65;14.55;;;7.90;99.90;;;;;;5062802;28;20107;-35
2023/12/15 03:24:33;;;;;;;23.20;14.18;;;8.00;99.90;;;;;;5062394;28;20101;-36
2023/12/15 03:26:58;;;;;;;24.48;16.23;;;8.00;99.90;;;;;;5060940;28;20067;-36
2023/12/15 03:29:24;;;;;;;26.02;16.30;;;8.00;99.90;;;;;;5062380;28;20032;-36
2023/12/15 03:31:50;;;;;;;25.92;15.05;;;8.00;99.90;;;;;;5062027;28;20059;-36
2023/12/15 03:34:15;;;;;;;25.88;14.85;;;8.00;99.90;;;;;;5062045;28;20023;-36
2023/12/15 03:36:41;;;;;;;21.88;14.38;;;8.00;99.90;;;;;;5062164;28;20025;-36
2023/12/15 03:39:07;;;;;;;21.45;14.13;;;8.00;99.90;;;;;;5061078;28;20067;-36
2023/12/15 03:41:33;;;;;;;23.00;15.45;;;8.00;99.90;;;;;;5061726;28;20046;-36
2023/12/15 03:43:59;;;;;;;22.17;14.65;;;8.00;99.90;;;;;;5061342;28;20082;-36
2023/12/15 03:46:25;;;;;;;22.85;14.52;;;8.00;99.90;;;;;;5061672;28;20460;-36
2023/12/15 03:48:50;;;;;;;23.65;15.00;;;8.00;99.90;;;;;;5060143;28;20027;-36
2023/12/15 03:51:16;;;;;;;31.55;17.30;;;8.10;99.90;;;;;;5060967;28;20071;-37
2023/12/15 03:53:41;;;;;;;24.52;15.60;;;8.00;99.90;;;;;;5061285;28;20147;-36
2023/12/15 03:56:09;;;;;;;24.50;16.42;;;8.00;99.90;;;;;;5060430;28;20035;-39
2023/12/15 03:58:34;;;;;;;29.80;17.10;;;8.10;99.90;;;;;;5061877;28;20403;-36
2023/12/15 04:01:01;;;;;;;25.80;15.75;;;8.10;99.90;;;;;;5061151;28;20020;-36
2023/12/15 04:03:29;;;;;;;24.85;14.93;;;8.10;99.90;;;;;;5060596;28;20628;-36
2023/12/15 04:05:55;;;;;;;22.88;14.90;;;8.10;99.90;;;;;;5060230;28;20105;-36
2023/12/15 04:08:20;;;;;;;24.00;14.65;;;8.10;99.90;;;;;;5060841;28;20024;-36
2023/12/15 04:10:48;;;;;;;26.35;16.67;;;8.10;99.90;;;;;;5060739;28;20021;-36
2023/12/15 04:13:14;;;;;;;28.33;16.90;;;8.10;99.90;;;;;;5061920;28;20021;-36
2023/12/15 04:15:40;;;;;;;28.17;17.10;;;8.20;99.90;;;;;;5061284;28;20365;-37
2023/12/15 04:18:07;;;;;;;25.27;16.88;;;8.20;99.90;;;;;;5060361;28;20059;-36
2023/12/15 04:20:32;;;;;;;24.35;16.33;;;8.20;99.90;;;;;;5060286;28;20955;-34
2023/12/15 04:22:58;;;;;;;25.10;15.77;;;8.20;99.90;;;;;;5059894;28;20268;-35
2023/12/15 04:25:24;;;;;;;23.42;15.00;;;8.20;99.90;;;;;;5060403;28;20012;-37
2023/12/15 04:27:49;;;;;;;23.52;15.02;;;8.20;99.90;;;;;;5059727;28;20799;-35
2023/12/15 04:30:15;;;;;;;21.33;14.93;;;8.20;99.90;;;;;;5059926;28;20914;-36
2023/12/15 04:32:40;;;;;;;23.58;15.40;;;8.20;99.90;;;;;;5060193;28;20559;-35
2023/12/15 04:35:06;;;;;;;26.77;15.65;;;8.20;99.90;;;;;;5060107;28;20081;-36
2023/12/15 04:37:32;;;;;;;27.85;15.93;;;8.20;99.90;;;;;;5060204;28;20024;-35
2023/12/15 04:39:57;;;;;;;29.17;16.38;;;8.20;99.90;;;;;;5059755;28;20040;-35
2023/12/15 04:42:23;;;;;;;27.65;15.82;;;8.20;99.90;;;;;;5060885;28;20031;-35
2023/12/15 04:44:49;;;;;;;26.45;16.48;;;8.20;99.90;;;;;;5059399;28;20396;-36
2023/12/15 04:47:14;;;;;;;21.77;14.27;;;8.30;99.90;;;;;;5059559;28;20024;-35
2023/12/15 04:49:40;;;;;;;28.80;17.20;;;8.30;99.90;;;;;;5059820;28;20479;-36
2023/12/15 04:52:06;;;;;;;24.02;14.93;;;8.30;99.90;;;;;;5058950;28;20056;-36
2023/12/15 04:54:31;;;;;;;22.08;13.77;;;8.30;99.90;;;;;;5059979;28;20652;-40
2023/12/15 04:56:57;;;;;;;23.55;14.60;;;8.30;99.90;;;;;;5060087;28;20029;-36
2023/12/15 04:59:23;;;;;;;22.27;15.00;;;8.30;99.90;;;;;;5060100;28;20056;-36
2023/12/15 05:01:48;;;;;;;23.48;13.65;;;8.30;99.90;;;;;;5059742;28;20408;-35
2023/12/15 05:04:14;;;;;;;23.63;14.93;;;8.30;99.90;;;;;;5059910;28;20063;-36
2023/12/15 05:06:39;;;;;;;22.67;13.55;;;8.30;99.90;;;;;;5059384;28;20020;-36
2023/12/15 05:09:08;;;;;;;23.52;13.93;;;8.40;99.90;;;;;;5060129;28;20056;-36
2023/12/15 05:11:35;;;;;;;22.80;14.43;;;8.40;99.90;;;;;;5060361;28;20031;-36
2023/12/15 05:14:01;;;;;;;25.17;16.17;;;8.40;99.90;;;;;;5059563;28;20498;-37
2023/12/15 05:16:28;;;;;;;26.02;15.60;;;8.40;99.90;;;;;;5060242;28;20067;-37
2023/12/15 05:18:54;;;;;;;25.42;16.52;;;8.40;99.90;;;;;;5058820;28;20032;-36
2023/12/15 05:21:20;;;;;;;25.77;17.23;;;8.40;99.90;;;;;;5059208;28;20032;-36
2023/12/15 05:23:45;;;;;;;23.30;15.32;;;8.40;99.90;;;;;;5059552;28;20793;-43
2023/12/15 05:26:14;;;;;;;21.17;14.55;;;8.50;99.90;;;;;;5058165;28;20020;-36
2023/12/15 05:28:39;;;;;;;21.42;15.05;;;8.50;99.90;;;;;;5057544;28;20037;-36
2023/12/15 05:31:06;;;;;;;24.15;15.35;;;8.50;99.90;;;;;;5058630;28;20021;-36
2023/12/15 05:33:32;;;;;;;22.83;15.43;;;8.50;99.90;;;;;;5057088;28;20039;-36
2023/12/15 05:35:58;;;;;;;23.10;15.68;;;8.50;99.90;;;;;;5058144;28;20370;-36
2023/12/15 05:38:23;;;;;;;21.42;14.55;;;8.60;99.90;;;;;;5058840;28;20032;-36
2023/12/15 05:40:49;;;;;;;20.55;14.30;;;8.60;99.90;;;;;;5057387;28;20028;-37
2023/12/15 05:43:15;;;;;;;22.23;15.13;;;8.60;99.90;;;;;;5060256;28;20020;-37
2023/12/15 05:45:40;;;;;;;21.45;15.27;;;8.60;99.90;;;;;;5060221;28;20390;-37
2023/12/15 05:48:06;;;;;;;21.30;15.45;;;8.60;99.90;;;;;;5059005;28;20439;-36
2023/12/15 05:50:31;;;;;;;20.48;14.10;;;8.60;99.90;;;;;;5060135;28;20029;-36
2023/12/15 05:52:57;;;;;;;19.98;13.60;;;8.70;99.90;;;;;;5059186;28;20078;-35
2023/12/15 05:55:23;;;;;;;21.40;14.63;;;8.70;99.90;;;;;;5059111;28;20035;-37
2023/12/15 05:57:48;;;;;;;24.60;15.38;;;8.70;99.90;;;;;;5059581;28;20479;-38
2023/12/15 06:00:15;;;;;;;28.10;16.67;;;8.70;99.90;;;;;;5059740;28;20036;-34
2023/12/15 06:02:42;;;;;;;21.60;15.02;;;8.60;99.90;;;;;;5059123;28;20116;-36
2023/12/15 06:05:08;;;;;;;25.48;15.02;;;8.70;99.90;;;;;;5059126;28;20071;-35
2023/12/15 06:07:34;;;;;;;25.08;15.32;;;8.70;99.90;;;;;;5059450;28;20632;-36
2023/12/15 06:10:00;;;;;;;22.58;15.23;;;8.70;99.90;;;;;;5058509;28;20555;-36
2023/12/15 06:12:25;;;;;;;21.58;14.90;;;8.70;99.90;;;;;;5060286;28;20035;-36
2023/12/15 06:14:51;;;;;;;22.98;14.75;;;8.70;99.90;;;;;;5058709;28;20032;-36
2023/12/15 06:17:16;;;;;;;21.30;14.52;;;8.70;99.90;;;;;;5058723;28;20464;-37
2023/12/15 06:19:42;;;;;;;22.27;15.68;;;8.70;99.90;;;;;;5058743;28;20036;-37
2023/12/15 06:22:08;;;;;;;24.80;14.82;;;8.70;99.90;;;;;;5059572;28;20032;-37
2023/12/15 06:24:33;;;;;;;21.15;14.93;;;8.70;99.90;;;;;;5059144;28;20751;-37
2023/12/15 06:26:59;;;;;;;24.52;15.75;;;8.60;99.90;;;;;;5059407;28;20028;-37
2023/12/15 06:29:25;;;;;;;26.75;15.60;;;8.70;99.90;;;;;;5058399;28;20757;-37
2023/12/15 06:31:51;;;;;;;19.42;13.90;;;8.70;99.90;;;;;;5062776;28;20082;-36
2023/12/15 06:34:16;;;;;;;19.52;13.52;;;8.70;99.90;;;;;;5062178;28;20418;-37
2023/12/15 06:36:42;;;;;;;21.48;14.38;;;8.70;99.90;;;;;;5061899;28;20025;-37
2023/12/15 06:39:08;;;;;;;22.30;13.93;;;8.70;99.90;;;;;;5062399;28;20036;-35
2023/12/15 06:41:33;;;;;;;22.88;15.18;;;8.70;99.90;;;;;;5062465;28;20027;-36
2023/12/15 06:43:59;;;;;;;24.75;14.68;;;8.70;99.90;;;;;;5061650;28;20039;-36
2023/12/15 06:46:28;;;;;;;26.45;15.95;;;8.70;99.90;;;;;;5062359;28;20013;-37
2023/12/15 06:48:53;;;;;;;19.60;13.77;;;8.70;99.90;;;;;;5062996;28;20106;-36
2023/12/15 06:51:19;;;;;;;21.17;14.15;;;8.70;99.90;;;;;;5061391;28;20052;-37
2023/12/15 06:53:45;;;;;;;17.50;12.75;;;8.70;99.90;;;;;;5062174;28;20121;-37
2023/12/15 06:56:11;;;;;;;18.85;13.48;;;8.70;99.90;;;;;;5062273;28;20031;-36
2023/12/15 06:58:36;;;;;;;21.55;13.40;;;8.70;99.90;;;;;;5062267;28;20080;-35
2023/12/15 07:01:02;;;;;;;18.88;12.15;;;8.70;99.90;;;;;;5063106;28;20757;-37
2023/12/15 07:03:28;;;;;;;17.33;12.07;;;8.70;99.90;;;;;;5061729;28;20043;-36
2023/12/15 07:05:54;;;;;;;21.48;13.50;;;8.70;99.90;;;;;;5060582;28;20040;-36
2023/12/15 07:08:20;;;;;;;19.83;13.48;;;8.60;99.90;;;;;;5062505;28;20028;-36
2023/12/15 07:10:45;;;;;;;19.92;13.65;;;8.60;99.90;;;;;;5061902;28;20032;-37
2023/12/15 07:13:11;;;;;;;23.40;14.65;;;8.60;99.90;;;;;;5061222;28;20028;-36
2023/12/15 07:15:37;;;;;;;20.85;13.65;;;8.60;99.90;;;;;;5062466;28;20044;-36
2023/12/15 07:18:05;;;;;;;19.90;12.35;;;8.60;99.90;;;;;;5061498;28;20070;-37
2023/12/15 07:20:31;;;;;;;19.92;12.23;;;8.60;99.90;;;;;;5061467;28;20040;-39
2023/12/15 07:22:57;;;;;;;18.58;12.45;;;8.60;99.90;;;;;;5061020;28;20035;-37
2023/12/15 07:25:24;;;;;;;22.08;12.68;;;8.60;99.90;;;;;;5061693;28;20032;-36
2023/12/15 07:27:51;;;;;;;17.92;12.73;;;8.60;99.90;;;;;;5060095;28;20029;-37
2023/12/15 07:30:16;;;;;;;20.38;13.07;;;8.60;99.90;;;;;;5061975;28;20495;-36
2023/12/15 07:32:42;;;;;;;20.92;13.60;;;8.60;99.90;;;;;;5059985;28;20024;-36
2023/12/15 07:35:09;;;;;;;19.55;13.15;;;8.60;99.90;;;;;;5061359;28;20764;-34
2023/12/15 07:37:35;;;;;;;19.15;13.07;;;8.60;99.90;;;;;;5060962;28;20028;-37
2023/12/15 07:40:00;;;;;;;20.48;13.52;;;8.70;99.90;;;;;;5060196;28;20032;-35
2023/12/15 07:42:26;;;;;;;21.95;14.15;;;8.70;99.90;;;;;;5060528;28;20109;-35
2023/12/15 07:44:52;;;;;;;18.83;13.15;;;8.60;99.90;;;;;;5060699;28;20082;-37
2023/12/15 07:47:18;;;;;;;18.65;12.65;;;8.70;99.90;;;;;;5060075;28;20133;-37
2023/12/15 07:49:43;;;;;;;18.73;13.05;;;8.60;99.90;;;;;;5061198;28;20036;-37
2023/12/15 07:52:09;;;;;;;18.35;12.93;;;8.60;99.90;;;;;;5060963;28;20810;-37
2023/12/15 07:54:34;;;;;;;19.55;12.55;;;8.70;99.90;;;;;;5060582;28;20025;-37
2023/12/15 07:57:00;;;;;;;18.05;12.75;;;8.60;99.90;;;;;;5061553;28;20021;-37
2023/12/15 07:59:25;;;;;;;18.08;11.68;;;8.60;99.90;;;;;;5061237;28;20088;-37
2023/12/15 08:01:52;;;;;;;17.40;12.07;;;8.60;99.90;;;;;;5059621;28;20024;-37
2023/12/15 08:04:19;;;;;;;20.73;14.13;;;8.60;99.90;;;;;;5061262;28;20114;-37
2023/12/15 08:06:44;;;;;;;18.65;12.40;;;8.60;99.90;;;;;;5060435;28;20035;-36
2023/12/15 08:09:10;;;;;;;18.23;13.13;;;8.60;99.90;;;;;;5058588;28;20041;-36
2023/12/15 08:11:39;;;;;;;20.67;12.98;;;8.70;99.90;;;;;;5062315;28;20028;-36
2023/12/15 08:14:04;;;;;;;17.73;12.85;;;8.60;99.90;;;;;;5060527;28;20601;-36
2023/12/15 08:16:30;;;;;;;17.95;12.00;;;8.70;99.90;;;;;;5060645;28;20028;-37
2023/12/15 08:18:57;;;;;;;19.52;11.80;;;8.70;99.90;;;;;;5059854;28;20037;-36
2023/12/15 08:21:23;;;;;;;15.45;11.70;;;8.70;99.90;;;;;;5061810;28;20033;-37
2023/12/15 08:23:48;;;;;;;21.60;13.18;;;8.70;99.90;;;;;;5059721;28;20035;-37
2023/12/15 08:26:27;;;;;;;18.35;12.75;;;8.70;99.90;;;;;;5060798;28;20021;-36
2023/12/15 08:28:55;;;;;;;18.13;12.02;;;8.80;99.90;;;;;;5061083;28;20025;-37
2023/12/15 08:31:22;;;;;;;17.08;12.32;;;8.80;99.90;;;;;;5060321;28;20024;-38
2023/12/15 08:33:49;;;;;;;18.10;12.45;;;8.80;99.90;;;;;;5060943;28;20024;-35
2023/12/15 08:36:14;;;;;;;23.95;13.88;;;8.80;99.90;;;;;;5060647;28;20029;-35
2023/12/15 08:38:41;;;;;;;16.90;11.80;;;8.80;99.90;;;;;;5060140;28;20028;-37
2023/12/15 08:41:07;;;;;;;16.83;11.82;;;8.90;99.90;;;;;;5061158;28;20093;-37
2023/12/15 08:43:33;;;;;;;17.52;11.57;;;8.90;99.90;;;;;;5060257;28;20824;-36
2023/12/15 08:45:58;;;;;;;17.15;11.82;;;8.90;99.90;;;;;;5049667;28;20043;-37
2023/12/15 08:48:24;;;;;;;18.83;12.93;;;8.80;99.90;;;;;;5060809;28;21161;-36
2023/12/15 08:50:50;;;;;;;16.95;12.35;;;8.90;99.90;;;;;;5059573;28;20230;-37
2023/12/15 08:53:18;;;;;;;18.52;11.68;;;8.90;99.90;;;;;;5060349;28;20040;-35
2023/12/15 08:55:44;;;;;;;18.13;11.75;;;8.90;99.90;;;;;;5058955;28;20590;-36
2023/12/15 08:58:09;;;;;;;16.15;11.35;;;8.90;99.90;;;;;;5060391;28;20136;-36
2023/12/15 09:00:36;;;;;;;15.20;10.88;;;8.90;99.90;;;;;;5060489;28;20044;-36
2023/12/15 09:03:01;;;;;;;18.95;11.00;;;9.00;99.90;;;;;;5059881;28;20111;-38
2023/12/15 09:05:27;;;;;;;15.60;11.18;;;9.00;99.90;;;;;;5059841;28;20032;-38
2023/12/15 09:07:53;;;;;;;16.85;11.23;;;9.00;99.90;;;;;;5059479;28;20074;-37
2023/12/15 09:10:20;;;;;;;14.73;10.57;;;9.00;99.90;;;;;;5060406;28;20102;-37
2023/12/15 09:12:46;;;;;;;16.75;10.43;;;9.10;99.90;;;;;;5059854;28;20036;-36
2023/12/15 09:15:12;;;;;;;15.77;10.23;;;9.10;99.90;;;;;;5059923;28;20017;-36
2023/12/15 09:17:39;;;;;;;14.50;9.93;;;9.10;99.90;;;;;;5060065;28;20513;-36
2023/12/15 09:20:07;;;;;;;16.08;10.70;;;9.10;99.90;;;;;;5058870;28;20082;-36
2023/12/15 09:22:33;;;;;;;14.48;10.38;;;9.10;99.90;;;;;;5060770;28;20020;-37
2023/12/15 09:24:59;;;;;;;15.45;10.02;;;9.10;99.90;;;;;;5059690;28;20036;-36
2023/12/15 09:27:24;;;;;;;17.80;11.52;;;9.20;99.90;;;;;;5060316;28;20021;-36
2023/12/15 09:29:50;;;;;;;12.85;9.43;;;9.20;99.90;;;;;;5065455;28;20191;-37
2023/12/15 09:32:15;;;;;;;14.93;10.77;;;9.20;99.90;;;;;;5059255;28;20020;-36
2023/12/15 09:34:41;;;;;;;16.83;9.50;;;9.20;99.90;;;;;;5059549;28;20081;-37
2023/12/15 09:37:07;;;;;;;10.80;8.43;;;9.20;99.90;;;;;;5059455;28;20044;-37
2023/12/15 09:39:33;;;;;;;13.48;8.88;;;9.30;99.90;;;;;;5059709;28;20071;-37
2023/12/15 09:41:59;;;;;;;11.57;8.68;;;9.30;99.90;;;;;;5067785;28;20478;-37
2023/12/15 09:44:24;;;;;;;11.80;8.43;;;9.30;99.90;;;;;;5059888;28;20032;-37
2023/12/15 09:46:51;;;;;;;14.43;9.13;;;9.40;99.90;;;;;;5058509;28;20064;-36
2023/12/15 09:49:18;;;;;;;13.68;8.88;;;9.40;99.90;;;;;;5059815;28;20101;-36
2023/12/15 09:51:48;;;;;;;14.18;9.27;;;9.40;99.90;;;;;;5059323;28;20499;-37
2023/12/15 09:54:14;;;;;;;10.73;7.93;;;9.50;99.90;;;;;;5057560;28;20379;-37
2023/12/15 09:56:40;;;;;;;11.13;7.47;;;9.50;99.90;;;;;;5059833;28;20700;-38
2023/12/15 09:59:08;;;;;;;11.52;8.00;;;9.50;99.90;;;;;;5059477;28;20131;-37
2023/12/15 10:01:37;;;;;;;11.13;7.55;;;9.50;99.90;;;;;;5059230;28;20024;-36
2023/12/15 10:04:05;;;;;;;16.00;8.18;;;9.60;99.90;;;;;;5060074;28;20056;-37
2023/12/15 10:06:35;;;;;;;13.07;8.05;;;9.60;99.90;;;;;;5063365;28;20023;-37
2023/12/15 10:09:02;;;;;;;10.68;7.80;;;9.60;99.90;;;;;;5062779;28;20020;-36
2023/12/15 10:11:32;;;;;;;11.40;7.85;;;9.60;99.90;;;;;;5063777;28;20798;-36
2023/12/15 10:13:59;;;;;;;11.77;8.15;;;9.70;99.90;;;;;;5052350;28;20024;-37
2023/12/15 10:16:27;;;;;;;11.40;8.27;;;9.70;99.90;;;;;;5062276;28;20025;-36
2023/12/15 10:18:53;;;;;;;13.55;8.48;;;9.70;99.90;;;;;;5062859;28;20031;-36
2023/12/15 10:21:18;;;;;;;12.38;8.68;;;9.70;99.90;;;;;;5063554;28;20024;-35
2023/12/15 10:23:44;;;;;;;13.95;8.15;;;9.80;99.90;;;;;;5062244;28;20150;-36
2023/12/15 10:26:09;;;;;;;12.23;8.15;;;9.80;99.90;;;;;;5063292;28;20865;-36
2023/12/15 10:28:40;;;;;;;10.35;7.10;;;9.80;99.90;;;;;;5061530;28;20040;-36
2023/12/15 10:31:06;;;;;;;10.35;7.18;;;9.80;99.90;;;;;;5063039;28;20480;-34
2023/12/15 10:33:33;;;;;;;10.10;6.75;;;9.90;99.90;;;;;;5061375;28;20067;-35
2023/12/15 10:36:02;;;;;;;12.32;7.07;;;9.90;99.90;;;;;;5040403;28;20866;-36
2023/12/15 10:38:29;;;;;;;11.70;7.15;;;9.90;99.90;;;;;;5055417;28;20024;-35
2023/12/15 10:40:57;;;;;;;12.18;6.93;;;9.90;99.90;;;;;;5061265;28;20040;-36
2023/12/15 10:43:26;;;;;;;9.48;6.18;;;9.90;99.90;;;;;;5061676;28;20024;-36
2023/12/15 10:45:54;;;;;;;9.77;6.15;;;9.90;99.90;;;;;;5062452;28;20123;-36
2023/12/15 10:48:20;;;;;;;9.48;6.18;;;9.90;99.90;;;;;;5063218;28;20024;-35
2023/12/15 10:50:46;;;;;;;8.38;6.15;;;9.90;99.90;;;;;;5061425;28;20035;-36
2023/12/15 10:53:15;;;;;;;13.45;6.00;;;9.90;99.90;;;;;;5061531;28;20074;-36
2023/12/15 10:55:45;;;;;;;14.07;6.50;;;9.90;99.90;;;;;;5061869;28;20151;-38
2023/12/15 10:58:12;;;;;;;8.93;6.05;;;10.00;99.90;;;;;;5061692;28;20059;-36
2023/12/15 11:00:38;;;;;;;10.10;5.93;;;10.00;99.90;;;;;;5062199;28;20131;-42
2023/12/15 11:03:09;;;;;;;7.80;5.85;;;10.00;99.90;;;;;;5062783;28;20028;-36
2023/12/15 11:05:35;;;;;;;8.38;5.72;;;10.10;99.90;;;;;;5061897;28;20057;-37
2023/12/15 11:08:01;;;;;;;6.65;5.38;;;10.10;99.90;;;;;;5061436;28;20027;-37
2023/12/15 11:10:27;;;;;;;8.30;5.72;;;10.20;99.90;;;;;;5061726;28;20028;-36
2023/12/15 11:12:55;;;;;;;10.77;6.22;;;10.20;99.90;;;;;;5062132;28;20306;-37
2023/12/15 11:15:24;;;;;;;7.82;5.70;;;10.20;99.90;;;;;;5063387;28;20016;-36
2023/12/15 11:17:54;;;;;;;11.82;6.47;;;10.20;99.90;;;;;;5061164;28;20046;-36
2023/12/15 11:20:20;;;;;;;12.50;6.15;;;10.20;99.90;;;;;;5062653;28;20047;-36
2023/12/15 11:22:57;;;;;;;9.38;5.55;;;10.20;99.90;;;;;;5062466;28;20013;-38
2023/12/15 11:25:30;;;;;;;9.75;5.43;;;10.20;99.90;;;;;;5061366;28;20763;-37
2023/12/15 11:27:59;;;;;;;9.50;5.68;;;10.20;99.90;;;;;;5062481;28;20051;-37
2023/12/15 11:30:34;;;;;;;10.93;5.30;;;10.30;99.90;;;;;;5063718;28;20051;-36
2023/12/15 11:33:03;;;;;;;7.63;5.57;;;10.30;99.90;;;;;;5040898;28;20091;-36
2023/12/15 11:35:32;;;;;;;10.57;5.55;;;10.30;99.90;;;;;;5057551;28;20025;-36
2023/12/15 11:37:58;;;;;;;10.88;6.97;;;10.30;99.90;;;;;;5061755;28;20078;-36
2023/12/15 11:40:30;;;;;;;11.07;6.13;;;10.30;99.90;;;;;;5058758;28;20029;-36
2023/12/15 11:42:59;;;;;;;7.55;5.20;;;10.30;99.90;;;;;;5061476;28;20071;-36
2023/12/15 11:45:29;;;;;;;7.70;5.75;;;10.30;99.90;;;;;;5061646;28;20048;-37
2023/12/15 11:47:54;;;;;;;8.80;4.93;;;10.40;99.90;;;;;;5060085;28;20039;-36
2023/12/15 11:50:21;;;;;;;8.82;5.20;;;10.40;99.90;;;;;;5061400;28;20021;-37
2023/12/15 11:52:49;;;;;;;9.63;5.20;;;10.40;99.90;;;;;;5061562;28;20060;-36
2023/12/15 11:55:17;;;;;;;8.52;5.18;;;10.50;99.90;;;;;;5060728;28;20399;-38
2023/12/15 11:57:43;;;;;;;10.52;5.90;;;10.50;99.90;;;;;;5062091;28;20024;-37
2023/12/15 12:00:09;;;;;;;8.38;5.50;;;10.50;99.90;;;;;;5059638;28;20582;-36
2023/12/15 12:02:36;;;;;;;7.75;5.38;;;10.50;99.90;;;;;;5060768;28;20028;-37
2023/12/15 12:05:02;;;;;;;9.18;5.80;;;10.50;99.90;;;;;;5060960;28;20493;-37
2023/12/15 12:07:28;;;;;;;8.38;5.53;;;10.50;99.90;;;;;;5060514;28;20630;-36
2023/12/15 12:09:53;;;;;;;8.15;5.50;;;10.50;99.90;;;;;;5059211;28;20111;-36
2023/12/15 12:12:19;;;;;;;7.97;4.80;;;10.50;99.90;;;;;;5060618;28;20374;-36
2023/12/15 12:14:44;;;;;;;9.50;5.75;;;10.50;99.90;;;;;;5061333;28;20029;-36
2023/12/15 12:17:10;;;;;;;8.02;5.40;;;10.50;99.90;;;;;;5061168;28;20025;-36
2023/12/15 12:19:49;;;;;;;12.68;5.57;;;10.40;99.90;;;;;;5061544;28;20093;-35
2023/12/15 12:22:15;;;;;;;10.35;5.88;;;10.50;99.90;;;;;;5060711;28;20027;-36
2023/12/15 12:24:41;;;;;;;6.78;4.78;;;10.50;99.90;;;;;;5061466;28;20031;-36
2023/12/15 12:27:10;;;;;;;8.00;4.43;;;10.50;99.90;;;;;;5060053;28;20032;-38
2023/12/15 12:29:39;;;;;;;7.05;4.35;;;10.60;99.90;;;;;;5060496;28;20025;-37
2023/12/15 12:32:06;;;;;;;11.52;5.22;;;10.60;99.90;;;;;;5060941;28;20034;-37
2023/12/15 12:34:31;;;;;;;9.32;4.80;;;10.60;99.90;;;;;;5060994;28;20020;-36
2023/12/15 12:36:57;;;;;;;7.85;4.57;;;10.60;99.90;;;;;;5059244;28;20129;-37